Time;durP1;ratioP1;P1;durP2;ratioP2;P2;SDS_P1;SDS_P2;PMS_P1;PMS_P2;Temp;Humidity;BMP_temperature;BMP_pressure;BME280_temperature;BME280_humidity;BME280_pressure;Samples;Min_cycle;Max_cycle;Signal;HPM_P1;HPM_P2
2023/12/04 00:01:59;;;;;;;16.27;9.37;;;;;;;-2.88;83.73;99322.94;7269252;39;20862;31
2023/12/04 00:07:20;;;;;;;15.63;9.17;;;;;;;-2.85;84.21;99316.63;7288899;39;20252;31
2023/12/04 00:17:55;;;;;;;14.15;8.65;;;;;;;-2.44;81.42;99299.47;7244568;40;20272;31
2023/12/04 00:28:34;;;;;;;14.53;9.10;;;;;;;-2.37;81.39;99289.44;7241818;40;20281;31
2023/12/04 00:39:13;;;;;;;16.47;8.97;;;;;;;-2.61;81.33;99277.56;7259581;40;20259;31
2023/12/04 00:44:47;;;;;;;14.10;8.90;;;;;;;-2.63;80.67;99261.00;7237435;40;20249;31
2023/12/04 00:50:23;;;;;;;12.90;8.80;;;;;;;-2.62;80.64;99267.94;7235713;40;20689;31
2023/12/04 00:55:59;;;;;;;14.55;8.90;;;;;;;-2.77;81.31;99259.09;7195709;40;20393;31
2023/12/04 01:01:21;;;;;;;14.83;9.27;;;;;;;-2.70;81.43;99264.88;7117522;41;20379;31
2023/12/04 01:06:55;;;;;;;16.75;9.45;;;;;;;-2.72;81.40;99257.03;7177368;40;20969;31
2023/12/04 01:12:32;;;;;;;14.47;9.23;;;;;;;-2.63;81.63;99253.06;7179917;40;20703;31
2023/12/04 01:18:07;;;;;;;15.20;9.33;;;;;;;-2.53;81.40;99257.75;7200806;40;20752;31
2023/12/04 01:23:42;;;;;;;15.00;9.75;;;;;;;-2.34;81.14;99242.62;7268792;40;20307;31
2023/12/04 01:29:18;;;;;;;14.00;9.60;;;;;;;-2.48;82.09;99233.75;7228275;40;20774;31
2023/12/04 01:34:52;;;;;;;15.90;9.30;;;;;;;-2.64;83.76;99222.34;7032027;40;22049;31
2023/12/04 01:40:29;;;;;;;14.53;9.13;;;;;;;-2.77;84.10;99220.38;7193813;40;20341;31
2023/12/04 01:46:06;;;;;;;14.60;8.95;;;;;;;-2.83;84.25;99214.59;7225085;40;20681;31
2023/12/04 01:51:41;;;;;;;13.90;9.97;;;;;;;-2.84;84.38;99197.03;7268126;40;20401;31
2023/12/04 01:57:17;;;;;;;13.20;8.83;;;;;;;-2.94;85.36;99187.97;7167994;40;20239;31
2023/12/04 02:02:54;;;;;;;14.50;9.20;;;;;;;-2.91;84.68;99186.00;7228402;40;20818;31
2023/12/04 02:08:29;;;;;;;14.35;9.10;;;;;;;-2.85;84.39;99188.28;7240141;40;21498;31
2023/12/04 02:14:01;;;;;;;18.05;10.05;;;;;;;-2.89;85.04;99178.84;7238852;40;20261;31
2023/12/04 02:19:37;;;;;;;15.77;9.83;;;;;;;-2.82;84.02;99171.47;7197997;40;21634;31
2023/12/04 02:25:13;;;;;;;15.60;9.70;;;;;;;-2.60;83.60;99165.84;7217221;40;20708;31
2023/12/04 02:30:45;;;;;;;14.60;10.17;;;;;;;-2.49;83.30;99158.16;7287611;39;20786;31
2023/12/04 02:36:21;;;;;;;14.33;9.83;;;;;;;-2.47;82.48;99148.41;7200226;40;20247;31
2023/12/04 02:41:57;;;;;;;15.30;10.20;;;;;;;-2.51;82.93;99120.50;7215651;40;20238;31
2023/12/04 02:47:32;;;;;;;14.33;9.47;;;;;;;-2.60;84.73;99135.06;7178737;40;20829;31
2023/12/04 02:53:19;;;;;;;14.90;9.47;;;;;;;-2.60;83.70;99124.50;7195452;40;20751;31
2023/12/04 02:58:53;;;;;;;15.85;10.57;;;;;;;-2.59;83.72;99120.09;7127038;40;20270;31
2023/12/04 03:04:28;;;;;;;15.80;10.06;;;;;;;-2.63;84.45;99110.66;7162739;40;20837;31
2023/12/04 03:09:48;;;;;;;14.90;10.07;;;;;;;-2.60;84.40;99102.53;7208809;40;20806;31
2023/12/04 03:15:28;;;;;;;13.90;9.50;;;;;;;-2.64;83.96;99079.91;7209405;40;20254;31
2023/12/04 03:21:00;;;;;;;14.57;10.13;;;;;;;-2.52;83.91;99076.56;7137616;40;20243;31
2023/12/04 03:26:35;;;;;;;16.13;10.37;;;;;;;-2.44;83.63;99074.34;7237745;40;20340;31
2023/12/04 03:32:11;;;;;;;16.05;9.85;;;;;;;-2.33;83.66;99077.22;7197335;40;20721;31
2023/12/04 03:37:32;;;;;;;14.33;10.43;;;;;;;-2.22;82.83;99095.91;7139725;40;20346;31
2023/12/04 03:43:08;;;;;;;12.47;9.37;;;;;;;-2.26;82.90;99089.09;7168630;40;20321;31
2023/12/04 03:48:45;;;;;;;19.30;10.47;;;;;;;-2.32;82.12;99073.63;7204561;40;20239;31
2023/12/04 03:54:20;;;;;;;14.57;9.97;;;;;;;-2.33;82.95;99070.16;7195841;40;20721;31
2023/12/04 03:59:55;;;;;;;13.45;9.50;;;;;;;-2.36;83.03;99067.69;7210821;40;20773;31
2023/12/04 04:05:34;;;;;;;16.47;10.13;;;;;;;-2.32;81.97;99066.56;7176656;40;20713;31
2023/12/04 04:10:52;;;;;;;14.80;9.80;;;;;;;-2.36;82.43;99064.19;7187887;40;20797;31
2023/12/04 04:16:28;;;;;;;13.67;9.47;;;;;;;-2.40;82.57;99057.38;7187053;40;20906;31
2023/12/04 04:22:05;;;;;;;13.20;9.47;;;;;;;-2.39;82.66;99048.53;7218517;40;20311;31
2023/12/04 04:27:41;;;;;;;13.53;9.47;;;;;;;-2.31;82.30;99059.50;7191020;40;20243;31
2023/12/04 04:33:04;;;;;;;15.00;9.43;;;;;;;-2.23;82.84;99067.81;7238942;40;22094;31
2023/12/04 04:38:38;;;;;;;12.95;9.15;;;;;;;-2.26;82.47;99062.72;7265216;40;20699;31
2023/12/04 04:44:13;;;;;;;13.27;8.82;;;;;;;-2.22;82.64;99058.09;7228012;40;20389;31
2023/12/04 04:49:48;;;;;;;12.67;9.10;;;;;;;-2.18;82.92;99052.53;7187119;40;22118;31
2023/12/04 04:55:25;;;;;;;13.03;9.03;;;;;;;-2.25;82.64;99053.00;7202274;40;20534;31
2023/12/04 05:06:04;;;;;;;12.20;8.37;;;;;;;-2.18;82.72;99023.50;7276619;39;20426;31
2023/12/04 05:16:44;;;;;;;14.60;8.60;;;;;;;-2.09;82.15;99019.47;7289198;39;20641;31
2023/12/04 05:22:04;;;;;;;13.28;8.88;;;;;;;-2.15;82.28;99025.97;7256318;40;21267;31
2023/12/04 05:32:43;;;;;;;13.05;8.65;;;;;;;-2.28;83.46;98988.91;7297138;39;20272;31
2023/12/04 05:38:18;;;;;;;13.40;8.50;;;;;;;-2.49;83.88;98984.91;7244123;40;20702;31
2023/12/04 05:43:37;;;;;;;13.50;8.63;;;;;;;-2.59;84.90;98996.97;7192901;40;20415;31
2023/12/04 05:49:13;;;;;;;16.17;9.30;;;;;;;-2.65;84.81;98976.22;7221914;40;20807;31
2023/12/04 05:54:33;;;;;;;14.20;8.73;;;;;;;-2.64;85.38;98971.78;7224067;40;20826;31
2023/12/04 05:59:54;;;;;;;12.93;8.63;;;;;;;-2.54;85.17;98965.84;7249266;40;20258;31
2023/12/04 06:05:30;;;;;;;13.20;8.67;;;;;;;-2.57;85.26;98950.22;7223949;40;20252;31
2023/12/04 06:11:06;;;;;;;12.50;8.37;;;;;;;-2.52;85.12;98944.66;7233650;40;20389;31
2023/12/04 06:16:41;;;;;;;12.35;8.30;;;;;;;-2.61;86.41;98945.22;7214456;40;20238;31
2023/12/04 06:22:21;;;;;;;12.27;8.40;;;;;;;-2.48;84.93;98935.63;7162723;40;21006;31
2023/12/04 06:27:54;;;;;;;12.87;8.77;;;;;;;-2.28;84.67;98924.72;7187493;40;20246;31
2023/12/04 06:33:17;;;;;;;11.97;8.27;;;;;;;-2.19;83.39;98923.31;7177209;40;20700;31
2023/12/04 06:38:51;;;;;;;14.82;9.18;;;;;;;-2.17;83.38;98911.72;7219372;40;21480;31
2023/12/04 06:44:12;;;;;;;13.25;9.05;;;;;;;-2.16;82.92;98915.22;7167328;40;21981;31
2023/12/04 06:49:47;;;;;;;14.07;9.27;;;;;;;-2.12;83.45;98908.78;7220078;40;20261;31
2023/12/04 07:00:29;;;;;;;14.65;9.75;;;;;;;-2.11;83.78;98906.06;7209081;40;20327;31
2023/12/04 07:06:04;;;;;;;15.80;10.17;;;;;;;-2.05;83.31;98899.53;7243364;40;20727;31
2023/12/04 07:11:26;;;;;;;14.63;10.37;;;;;;;-2.13;83.99;98893.91;7222678;40;20243;31
2023/12/04 07:17:01;;;;;;;15.97;10.17;;;;;;;-2.11;83.38;98905.22;7274970;40;20806;31
2023/12/04 07:22:23;;;;;;;14.60;10.00;;;;;;;-2.08;83.95;98903.22;7281539;40;20337;31
2023/12/04 07:27:59;;;;;;;15.33;10.13;;;;;;;-2.02;83.43;98925.78;7280612;40;20273;31
2023/12/04 07:33:31;;;;;;;13.50;9.40;;;;;;;-1.93;83.18;98909.34;7230954;40;20760;31
2023/12/04 07:39:08;;;;;;;16.47;10.43;;;;;;;-1.85;83.31;98907.09;7246235;40;20242;31
2023/12/04 07:44:42;;;;;;;13.77;9.87;;;;;;;-1.88;83.59;98894.91;7242674;40;20824;31
2023/12/04 07:50:20;;;;;;;14.80;9.93;;;;;;;-1.86;83.83;98876.31;7177793;40;20352;31
2023/12/04 07:55:53;;;;;;;13.10;8.73;;;;;;;-1.88;83.79;98871.13;7199608;40;20302;31
2023/12/04 08:01:28;;;;;;;14.75;10.10;;;;;;;-1.84;84.11;98877.91;7198300;40;20262;31
2023/12/04 08:06:59;;;;;;;17.73;11.57;;;;;;;-1.68;83.50;98880.44;7172728;40;20328;31
2023/12/04 08:12:19;;;;;;;13.73;9.90;;;;;;;-1.62;83.64;98882.66;6951474;40;21186;31
2023/12/04 08:17:36;;;;;;;17.10;11.10;;;;;;;-1.56;83.40;98865.59;7177834;40;20916;31
2023/12/04 08:23:13;;;;;;;15.80;9.80;;;;;;;-1.61;82.75;98859.75;7227228;40;20361;31
2023/12/04 08:28:49;;;;;;;14.23;9.70;;;;;;;-1.59;82.98;98844.66;7223331;40;20234;31
2023/12/04 08:34:09;;;;;;;17.45;10.70;;;;;;;-1.77;84.55;98840.56;7255173;40;20737;31
2023/12/04 08:39:45;;;;;;;12.03;9.23;;;;;;;-1.79;84.43;98842.44;7234222;40;20477;31
2023/12/04 08:50:38;;;;;;;14.40;9.30;;;;;;;-1.62;83.82;98839.56;7201232;40;20262;31
2023/12/04 09:01:20;;;;;;;14.37;9.50;;;;;;;-1.71;84.83;98846.28;7243645;40;20396;31
2023/12/04 09:06:41;;;;;;;13.45;8.55;;;;;;;-1.62;84.89;98850.13;7239965;40;20627;31
2023/12/04 09:12:01;;;;;;;12.50;9.00;;;;;;;-1.58;84.32;98862.22;7251545;40;20604;31
2023/12/04 09:17:36;;;;;;;13.15;9.75;;;;;;;-1.46;84.54;98867.53;7297320;39;20235;31
2023/12/04 09:22:56;;;;;;;13.60;8.93;;;;;;;-1.34;84.64;98860.59;7255455;39;20937;31
2023/12/04 09:28:32;;;;;;;13.50;9.40;;;;;;;-1.41;84.09;98843.47;7316972;39;20284;31
2023/12/04 09:39:13;;;;;;;13.80;9.20;;;;;;;-1.18;84.34;98863.06;7290270;40;20663;31
2023/12/04 09:49:53;;;;;;;11.70;8.30;;;;;;;-0.96;82.73;98845.66;7240451;40;20640;31
2023/12/04 09:55:30;;;;;;;11.50;8.50;;;;;;;-0.94;82.72;98838.50;7256664;39;20316;31
2023/12/04 10:01:05;;;;;;;11.40;8.02;;;;;;;-0.89;83.09;98839.97;7234421;39;20302;31
2023/12/04 10:06:41;;;;;;;10.87;7.80;;;;;;;-0.86;83.12;98839.75;7203000;40;20263;31
2023/12/04 10:12:15;;;;;;;10.87;7.97;;;;;;;-0.82;82.41;98817.44;7189318;40;20266;31
2023/12/04 10:17:46;;;;;;;14.13;8.93;;;;;;;-0.85;82.55;98812.34;7196165;40;20706;31
2023/12/04 10:23:21;;;;;;;13.57;9.20;;;;;;;-0.82;83.54;98798.91;7254742;40;20277;31
2023/12/04 10:28:52;;;;;;;12.80;9.20;;;;;;;-0.81;83.83;98779.44;7215486;40;20243;31
2023/12/04 10:34:09;;;;;;;15.60;11.33;;;;;;;-0.78;84.06;98781.87;7194792;40;20272;31
2023/12/04 10:39:46;;;;;;;14.03;9.43;;;;;;;-0.80;84.12;98775.84;7215139;40;20261;31
2023/12/04 10:45:22;;;;;;;12.30;8.70;;;;;;;-0.80;83.98;98760.00;7209683;40;20258;31
2023/12/04 10:50:52;;;;;;;15.70;10.05;;;;;;;-0.77;84.03;98751.81;7230558;40;20353;31
2023/12/04 10:56:26;;;;;;;14.00;10.80;;;;;;;-0.77;83.97;98733.31;7237246;40;20231;31
2023/12/04 11:01:59;;;;;;;12.80;9.95;;;;;;;-0.83;84.91;98720.53;7149199;40;20336;31
2023/12/04 11:07:31;;;;;;;14.30;10.30;;;;;;;-0.81;85.88;98703.59;7145653;40;20241;31
2023/12/04 11:13:04;;;;;;;22.43;11.73;;;;;;;-0.79;86.43;98687.63;7186537;40;20245;31
2023/12/04 11:18:40;;;;;;;14.65;10.15;;;;;;;-0.80;86.08;98677.97;7213599;40;20238;31
2023/12/04 11:24:15;;;;;;;15.23;10.47;;;;;;;-0.80;86.30;98667.41;7245508;40;20379;31
2023/12/04 11:29:50;;;;;;;13.13;9.23;;;;;;;-0.76;86.20;98650.34;7226178;40;20308;31
2023/12/04 11:35:26;;;;;;;12.43;8.80;;;;;;;-0.78;85.52;98645.16;7197055;40;20820;31
2023/12/04 11:41:01;;;;;;;12.30;8.30;;;;;;;-0.66;84.97;98651.41;7176793;40;20248;31
2023/12/04 11:46:36;;;;;;;11.60;8.60;;;;;;;-0.73;85.39;98642.19;7220325;40;20244;31
2023/12/04 11:52:12;;;;;;;15.45;9.25;;;;;;;-0.69;86.09;98641.00;7219117;40;20281;31
2023/12/04 12:02:51;;;;;;;13.00;9.20;;;;;;;-0.74;87.53;98622.81;7232807;40;20267;31
2023/12/04 12:08:27;;;;;;;14.00;9.85;;;;;;;-0.64;87.10;98623.00;7224292;40;20751;31
2023/12/04 12:13:47;;;;;;;14.20;10.03;;;;;;;-0.47;86.03;98609.38;7215345;40;20329;31
2023/12/04 12:19:08;;;;;;;14.90;9.60;;;;;;;-0.43;86.67;98589.69;7217024;40;20264;31
2023/12/04 12:24:45;;;;;;;12.80;8.90;;;;;;;-0.50;85.83;98581.34;7181634;40;20481;31
2023/12/04 12:30:19;;;;;;;14.00;9.30;;;;;;;-0.46;86.31;98566.09;7193780;40;20380;31
2023/12/04 12:40:54;;;;;;;18.03;10.70;;;;;;;-0.48;86.47;98545.03;7238729;40;20269;31
2023/12/04 12:46:29;;;;;;;15.35;10.60;;;;;;;-0.42;87.55;98533.16;7243828;40;20276;31
2023/12/04 12:51:50;;;;;;;16.20;10.03;;;;;;;-0.51;88.15;98518.78;7277750;40;20261;31
2023/12/04 12:57:27;;;;;;;13.80;8.77;;;;;;;-0.61;88.28;98507.19;7262453;40;21465;31
2023/12/04 13:02:59;;;;;;;14.80;10.57;;;;;;;-0.49;87.65;98502.81;7198114;40;20268;31
2023/12/04 13:08:34;;;;;;;15.40;9.80;;;;;;;-0.42;87.57;98500.53;7206299;40;20286;31
2023/12/04 13:14:05;;;;;;;13.60;9.60;;;;;;;-0.50;88.53;98478.16;7191974;40;20501;31
2023/12/04 13:19:37;;;;;;;16.40;11.10;;;;;;;-0.42;88.05;98474.06;7210996;40;20235;31
2023/12/04 13:24:55;;;;;;;15.65;10.35;;;;;;;-0.43;88.63;98449.41;7212084;40;20266;31
2023/12/04 13:35:29;;;;;;;22.10;15.50;;;;;;;-0.48;88.44;98423.28;7296056;40;20251;31
2023/12/04 13:45:54;;;;;;;14.53;10.37;;;;;;;-0.29;88.60;98414.78;7250725;40;21111;31
2023/12/04 13:56:44;;;;;;;12.65;9.35;;;;;;;-0.26;88.20;98395.16;7294727;39;20401;31
2023/12/04 14:07:15;;;;;;;19.73;12.03;;;;;;;-0.35;88.20;98377.37;7299870;39;20260;31
2023/12/04 14:12:49;;;;;;;33.77;21.30;;;;;;;-0.27;87.86;98356.44;7236998;40;20250;31
2023/12/04 14:18:10;;;;;;;18.00;12.50;;;;;;;-0.28;89.19;98363.53;7172174;40;20340;31
2023/12/04 14:23:31;;;;;;;22.67;15.23;;;;;;;-0.28;89.20;98346.78;7200723;40;20252;31
2023/12/04 14:29:06;;;;;;;14.45;9.30;;;;;;;-0.31;88.52;98331.16;7205218;40;20261;31
2023/12/04 14:34:25;;;;;;;13.15;8.50;;;;;;;-0.36;89.81;98334.16;7199434;40;20239;31
2023/12/04 14:40:00;;;;;;;11.17;8.87;;;;;;;-0.34;89.57;98324.28;7205883;40;20667;31
2023/12/04 14:45:33;;;;;;;12.03;8.40;;;;;;;-0.34;89.84;98320.78;7004680;40;21259;31
2023/12/04 14:51:10;;;;;;;13.00;8.27;;;;;;;-0.37;90.68;98313.94;7170960;40;20371;31
2023/12/04 14:57:30;;;;;;;11.90;7.75;;;;;;;-0.36;90.61;98305.06;7151833;40;20261;31
2023/12/04 15:03:09;;;;;;;13.37;9.10;;;;;;;-0.33;91.14;98288.91;7229117;40;20988;31
2023/12/04 15:14:10;;;;;;;15.80;11.37;;;;;;;-0.22;90.65;98280.13;7282438;40;20324;31
2023/12/04 15:19:53;;;;;;;12.95;8.70;;;;;;;-0.19;89.90;98272.78;7275722;40;20272;31
2023/12/04 15:24:58;;;;;;;11.17;7.97;;;;;;;-0.21;91.22;98261.47;7250770;40;20902;31
2023/12/04 15:30:19;;;;;;;13.50;9.27;;;;;;;-0.24;92.22;98255.56;7232626;40;20242;31
2023/12/04 15:35:53;;;;;;;13.07;9.23;;;;;;;-0.21;91.80;98244.72;7179823;40;20270;31
2023/12/04 15:41:13;;;;;;;12.15;9.30;;;;;;;-0.11;91.53;98241.22;7195368;40;20247;31
2023/12/04 15:46:34;;;;;;;12.10;8.50;;;;;;;-0.05;91.50;98238.09;7258503;40;21601;31
2023/12/04 15:52:10;;;;;;;11.70;8.90;;;;;;;0.00;91.38;98222.66;7232037;40;20257;31
2023/12/04 15:57:30;;;;;;;13.40;9.15;;;;;;;0.00;91.58;98225.31;7265617;39;20245;31
2023/12/04 16:03:05;;;;;;;15.57;10.80;;;;;;;-0.06;92.51;98206.44;7293037;39;20298;31
2023/12/04 16:08:38;;;;;;;20.90;12.80;;;;;;;-0.02;92.18;98205.22;7247984;40;20258;31
2023/12/04 16:13:58;;;;;;;21.00;12.60;;;;;;;0.10;92.06;98212.16;7191334;40;20404;31
2023/12/04 16:19:34;;;;;;;14.17;9.80;;;;;;;0.10;91.79;98203.38;7197404;40;20376;31
2023/12/04 16:25:05;;;;;;;13.80;10.15;;;;;;;0.04;92.15;98175.59;7218092;40;20243;31
2023/12/04 16:30:23;;;;;;;15.25;10.18;;;;;;;0.09;91.55;98189.28;7186908;40;20242;31
2023/12/04 16:35:58;;;;;;;15.37;11.10;;;;;;;0.11;91.15;98184.72;7258114;40;20960;31
2023/12/04 16:41:29;;;;;;;44.47;26.13;;;;;;;0.11;92.38;98186.50;7204463;40;20301;31
2023/12/04 16:47:01;;;;;;;23.55;15.00;;;;;;;0.11;92.12;98182.06;7125299;40;20258;31
2023/12/04 16:52:36;;;;;;;18.20;12.50;;;;;;;0.16;92.29;98174.56;7234759;40;20241;31
2023/12/04 16:58:07;;;;;;;12.53;9.53;;;;;;;0.20;92.50;98175.16;7226212;40;20505;31
2023/12/04 17:03:27;;;;;;;19.37;12.53;;;;;;;0.22;92.34;98163.44;7245618;40;20253;31
2023/12/04 17:08:59;;;;;;;22.15;14.05;;;;;;;0.24;92.63;98148.28;7226636;40;20262;31
2023/12/04 17:14:35;;;;;;;12.20;9.30;;;;;;;0.22;93.41;98150.19;7265413;40;20406;31
2023/12/04 17:20:07;;;;;;;17.53;11.07;;;;;;;0.23;94.91;98137.81;7287399;40;20433;31
2023/12/04 17:25:42;;;;;;;18.00;9.73;;;;;;;0.34;94.50;98145.72;7234104;40;20305;31
2023/12/04 17:31:16;;;;;;;13.93;9.93;;;;;;;0.37;92.68;98125.09;7208687;40;21431;31
2023/12/04 17:36:51;;;;;;;20.35;12.60;;;;;;;0.46;92.14;98110.22;7133177;40;20244;31
2023/12/04 17:42:11;;;;;;;18.05;10.80;;;;;;;0.57;92.12;98115.44;7171614;40;20341;31
2023/12/04 17:47:48;;;;;;;15.50;10.37;;;;;;;0.61;92.02;98095.66;7218770;40;20921;31
2023/12/04 17:53:23;;;;;;;15.20;10.77;;;;;;;0.65;92.02;98097.06;7257284;40;20838;31
2023/12/04 17:58:43;;;;;;;18.23;10.97;;;;;;;0.67;94.30;98099.56;7247133;40;21179;31
2023/12/04 18:04:19;;;;;;;47.70;26.75;;;;;;;0.64;94.61;98086.59;7252490;40;20241;31
2023/12/04 18:09:54;;;;;;;20.70;13.15;;;;;;;0.69;93.87;98087.03;7197350;40;20265;31
2023/12/04 18:20:34;;;;;;;14.50;10.30;;;;;;;0.71;93.95;98085.91;7269563;40;20289;31
2023/12/04 18:25:56;;;;;;;17.90;9.90;;;;;;;0.75;93.84;98067.94;7198623;40;20262;31
2023/12/04 18:31:18;;;;;;;16.83;10.23;;;;;;;0.75;94.50;98058.16;7207866;40;20229;31
2023/12/04 18:41:58;;;;;;;15.17;9.60;;;;;;;0.76;93.94;98054.53;7213891;40;20255;31
2023/12/04 18:47:33;;;;;;;13.60;10.00;;;;;;;0.80;93.61;98053.31;7281378;39;20245;31
2023/12/04 18:52:53;;;;;;;15.67;11.50;;;;;;;0.88;93.43;98055.28;7282752;39;20378;31
2023/12/04 18:58:27;;;;;;;19.50;11.60;;;;;;;0.85;93.31;98048.44;7258590;40;21184;31
2023/12/04 19:03:57;;;;;;;15.40;10.70;;;;;;;0.91;93.37;98055.03;7198649;40;20229;31
2023/12/04 19:09:15;;;;;;;17.27;12.13;;;;;;;0.96;93.30;98058.13;7200088;40;20313;31
2023/12/04 19:14:46;;;;;;;16.73;11.77;;;;;;;0.97;93.06;98058.94;7176145;40;20839;31
2023/12/04 19:20:16;;;;;;;17.13;12.37;;;;;;;0.98;94.10;98048.19;7232497;40;20273;31
2023/12/04 19:30:56;;;;;;;15.37;11.40;;;;;;;0.99;93.72;98020.72;7253140;40;20281;31
2023/12/04 19:36:29;;;;;;;17.97;11.33;;;;;;;1.03;93.90;98024.75;7245802;40;20249;31
2023/12/04 19:41:49;;;;;;;16.47;11.20;;;;;;;1.05;94.19;98003.41;7218883;40;20325;31
2023/12/04 19:47:25;;;;;;;16.80;11.60;;;;;;;1.05;95.04;98001.59;7186260;40;20255;31
2023/12/04 19:52:43;;;;;;;14.40;10.67;;;;;;;1.05;93.70;97993.66;7175426;40;20249;31
2023/12/04 19:58:18;;;;;;;17.85;12.00;;;;;;;1.09;94.30;97986.25;7197019;40;20436;31
2023/12/04 20:03:52;;;;;;;18.37;13.30;;;;;;;1.09;94.33;97981.78;7178081;40;20389;31
2023/12/04 20:14:28;;;;;;;16.55;11.95;;;;;;;1.11;94.13;97973.66;7183778;40;20286;31
2023/12/04 20:20:17;;;;;;;18.53;12.47;;;;;;;1.14;93.83;97965.44;7223067;40;20968;31
2023/12/04 20:25:39;;;;;;;24.80;15.80;;;;;;;1.19;93.99;97964.03;7182866;40;20285;31
2023/12/04 20:31:13;;;;;;;17.57;12.20;;;;;;;1.18;95.22;97961.53;7199843;40;20313;31
2023/12/04 20:37:03;;;;;;;16.80;12.73;;;;;;;1.17;94.17;97966.00;7137806;40;20786;31
2023/12/04 20:47:28;;;;;;;18.70;13.00;;;;;;;1.20;93.82;97973.69;7243144;40;20242;31
2023/12/04 20:53:03;;;;;;;19.70;13.40;;;;;;;1.22;93.44;97973.56;7262945;40;20351;31
2023/12/04 20:58:24;;;;;;;23.73;14.20;;;;;;;1.30;93.82;97976.34;7253950;40;20898;31
2023/12/04 21:03:58;;;;;;;19.10;13.70;;;;;;;1.30;93.62;97960.44;7299738;39;20797;31
2023/12/04 21:09:35;;;;;;;17.40;12.30;;;;;;;1.26;93.19;97965.19;7213661;40;20729;31
2023/12/04 21:15:09;;;;;;;18.80;13.47;;;;;;;1.28;93.36;97957.91;7199693;40;20760;31
2023/12/04 21:20:30;;;;;;;18.67;13.50;;;;;;;1.31;93.77;97962.94;7137071;40;20759;31
2023/12/04 21:26:07;;;;;;;19.47;14.40;;;;;;;1.27;93.73;97958.06;7172431;40;20254;31
2023/12/04 21:31:42;;;;;;;19.70;14.30;;;;;;;1.31;94.01;97952.34;6979913;40;21260;31
2023/12/04 21:37:02;;;;;;;20.10;14.20;;;;;;;1.36;92.98;97943.94;7195365;40;20794;31
2023/12/04 21:47:43;;;;;;;19.90;14.43;;;;;;;1.33;94.02;97936.25;7269569;40;20402;31
2023/12/04 21:53:19;;;;;;;22.17;16.00;;;;;;;1.30;94.17;97931.22;7277764;40;21934;31
2023/12/04 21:58:39;;;;;;;19.87;14.77;;;;;;;1.33;93.75;97938.91;7222938;40;20378;31
2023/12/04 22:09:35;;;;;;;21.30;14.47;;;;;;;1.31;94.40;97925.78;7224465;40;20406;31
2023/12/04 22:19:59;;;;;;;23.73;16.37;;;;;;;1.37;95.30;97903.13;7176009;40;20269;31
2023/12/04 22:30:41;;;;;;;21.50;15.30;;;;;;;1.37;95.76;97909.28;7293335;40;20312;31
2023/12/04 22:36:00;;;;;;;21.40;15.10;;;;;;;1.44;95.28;97914.88;7359545;39;21938;31
2023/12/04 22:41:20;;;;;;;23.17;15.47;;;;;;;1.44;94.99;97912.22;7293238;39;20932;31
2023/12/04 22:46:57;;;;;;;26.97;19.37;;;;;;;1.41;95.01;97907.19;7312601;39;20270;31
2023/12/04 22:52:30;;;;;;;27.73;19.83;;;;;;;1.42;96.07;97911.53;7245082;40;20253;31
2023/12/04 22:58:05;;;;;;;23.63;16.57;;;;;;;1.42;95.34;97906.22;7238438;40;20283;31
2023/12/04 23:03:41;;;;;;;20.50;15.40;;;;;;;1.46;94.35;97909.41;7220141;40;20712;31
2023/12/04 23:09:01;;;;;;;20.60;13.87;;;;;;;1.50;94.78;97916.97;7192845;40;20865;31
2023/12/04 23:14:37;;;;;;;22.73;14.97;;;;;;;1.47;94.98;97908.44;7220803;40;20245;31
2023/12/04 23:20:11;;;;;;;21.40;15.25;;;;;;;1.49;94.27;97911.81;7218102;40;20693;31
2023/12/04 23:25:47;;;;;;;19.83;13.30;;;;;;;1.53;94.73;97913.19;7212063;40;20711;31
2023/12/04 23:31:07;;;;;;;19.00;13.33;;;;;;;1.57;94.62;97919.91;7198005;40;20247;31
2023/12/04 23:36:41;;;;;;;18.85;13.10;;;;;;;1.52;94.19;97914.16;7185235;40;20280;31
2023/12/04 23:42:01;;;;;;;21.23;15.13;;;;;;;1.54;94.70;97906.88;7210653;40;20720;31
2023/12/04 23:47:21;;;;;;;18.40;14.10;;;;;;;1.58;94.44;97906.47;7206966;40;20324;31
2023/12/04 23:52:56;;;;;;;18.53;13.53;;;;;;;1.52;94.32;97896.44;7240236;40;20236;31
2023/12/04 23:58:16;;;;;;;19.80;14.25;;;;;;;1.59;94.40;97902.81;7227188;40;20766;31
